John F Kennedy International Airport
KJFK : now visible

Airfield :











YOU CAN JOIN US ON...

 
LOGIN :

Register | Disclaimer

   EN    FR    IT 

 









Legend :    VFR   Marginal VFR   IFR   Intensive IFR   Very Intensive IFR
Visi :
Ceiling :
>= 8 km
>= 3000ft
5 to 8 km
1000 to 3000 ft
1500m to 5 km
500 to 1000 ft
800 to 1500m
200 to 500 ft
< 800m
< 200 ft
Symbols :   Thunderstorms  Fog  Heavy snow  Heavy precipitations  Wind > 20 kt






- Airport Elevation : 13 ft
- IATA code : JFK


KJFK - John F Kennedy International

CURRENT METAR :
  • 200851Z 23007KT 10SM FEW250 08/06 A2990 RMK AO2 SLP126 T00830056 50002

EXPIRED METARs :
  • 200751Z 23006KT 10SM FEW250 09/06 A2991 RMK AO2 SLP127 T00890056
  • 200651Z 23008KT 10SM FEW250 09/06 A2990 RMK AO2 SLP124 T00890061

TAF KJFK
Valid from the 20 at 09:00 until the 21 at 12:00 UTC


200833Z 2009/2112 23005KT P6SM FEW250
FM201300 23010KT P6SM FEW060 FEW250
FM201700 21013KT P6SM FEW060
FM202000 19018KT P6SM SCT060
FM210000 18013KT P6SM SCT070
FM210300 18010KT P6SM BKN070
KZNY FIR / North America



MET'MAP, your aeronautical weather chart ! - Copyright ORBIFLY December 2007 - Disclaimer

ORBIFLY MET'MAP TEAM :

Programming & Development : Alexandra Zaïnal
Concept & original design : Baudouin d'Aumeries
Assistance for programming : Marc-Olivier Méhu
Technical & hardware support : Manuel Goepfert

Contact : metmap@orbifly.com




SOURCES & CREDITS :

   NOAA       Earth
Advisory